Terminal Aerodrome Forecast
Issued by NWS

Home | Current Version | Previous Version | Text Only | Print | Product List | Glossary On
Versions: 1 2 3 4 5 6 7 8 9 10 11 12 13 14 15 16 17 18 19 20
000
FTUS46 KEKA 241300 AAA
TAFCEC
TAF AMD
KCEC 241343Z 2414/2512 16017G25KT 5SM -RA BR BKN005 OVC010
     FM241800 18010KT P6SM -SHRA SCT015 BKN030
     FM250300 19004KT P6SM -SHRA SCT015 BKN025=

USA.gov is the U.S. government's official web portal to all federal, state and local government web resources and services.